sensor_id;sensor_type;location;lat;lon;timestamp;P1;durP1;ratioP1;P2;durP2;ratioP2
1308;SDS011;647;48.840;9.314;2023-04-03T00:02:09;61.58;;;6.32;;
1308;SDS011;647;48.840;9.314;2023-04-03T00:04:36;61.83;;;6.72;;
1308;SDS011;647;48.840;9.314;2023-04-03T00:07:03;61.92;;;6.30;;
1308;SDS011;647;48.840;9.314;2023-04-03T00:09:30;60.42;;;5.85;;
1308;SDS011;647;48.840;9.314;2023-04-03T00:11:57;60.45;;;5.60;;
1308;SDS011;647;48.840;9.314;2023-04-03T00:14:25;62.10;;;5.90;;
1308;SDS011;647;48.840;9.314;2023-04-03T00:16:52;61.25;;;5.60;;
1308;SDS011;647;48.840;9.314;2023-04-03T00:19:21;60.08;;;5.28;;
1308;SDS011;647;48.840;9.314;2023-04-03T00:21:48;60.38;;;6.43;;
1308;SDS011;647;48.840;9.314;2023-04-03T00:24:15;61.60;;;5.53;;
1308;SDS011;647;48.840;9.314;2023-04-03T00:26:42;60.38;;;5.88;;
1308;SDS011;647;48.840;9.314;2023-04-03T00:29:09;59.72;;;5.70;;
1308;SDS011;647;48.840;9.314;2023-04-03T00:31:36;61.65;;;6.22;;
1308;SDS011;647;48.840;9.314;2023-04-03T00:34:04;60.83;;;5.50;;
1308;SDS011;647;48.840;9.314;2023-04-03T00:36:32;62.35;;;6.03;;
1308;SDS011;647;48.840;9.314;2023-04-03T00:38:59;59.97;;;5.90;;
1308;SDS011;647;48.840;9.314;2023-04-03T00:41:26;60.20;;;5.65;;
1308;SDS011;647;48.840;9.314;2023-04-03T00:43:53;59.63;;;4.70;;
1308;SDS011;647;48.840;9.314;2023-04-03T00:46:21;60.50;;;5.70;;
1308;SDS011;647;48.840;9.314;2023-04-03T00:48:48;60.67;;;6.00;;
1308;SDS011;647;48.840;9.314;2023-04-03T00:51:16;65.55;;;6.15;;
1308;SDS011;647;48.840;9.314;2023-04-03T00:53:47;61.53;;;6.15;;
1308;SDS011;647;48.840;9.314;2023-04-03T00:56:16;60.20;;;5.93;;
1308;SDS011;647;48.840;9.314;2023-04-03T00:58:45;60.28;;;5.40;;
1308;SDS011;647;48.840;9.314;2023-04-03T01:01:15;62.92;;;6.05;;
1308;SDS011;647;48.840;9.314;2023-04-03T01:03:43;62.42;;;6.57;;
1308;SDS011;647;48.840;9.314;2023-04-03T01:06:10;61.42;;;5.88;;
1308;SDS011;647;48.840;9.314;2023-04-03T01:08:37;61.33;;;6.03;;
1308;SDS011;647;48.840;9.314;2023-04-03T01:11:06;60.40;;;5.80;;
1308;SDS011;647;48.840;9.314;2023-04-03T01:13:33;61.05;;;6.00;;
1308;SDS011;647;48.840;9.314;2023-04-03T01:16:00;59.80;;;5.63;;
1308;SDS011;647;48.840;9.314;2023-04-03T01:18:28;60.17;;;5.65;;
1308;SDS011;647;48.840;9.314;2023-04-03T01:21:02;59.58;;;5.30;;
1308;SDS011;647;48.840;9.314;2023-04-03T01:26:21;60.35;;;5.95;;
1308;SDS011;647;48.840;9.314;2023-04-03T01:28:48;61.65;;;6.07;;
1308;SDS011;647;48.840;9.314;2023-04-03T01:31:18;65.10;;;7.45;;
1308;SDS011;647;48.840;9.314;2023-04-03T01:33:48;60.22;;;5.75;;
1308;SDS011;647;48.840;9.314;2023-04-03T01:36:16;61.70;;;6.22;;
1308;SDS011;647;48.840;9.314;2023-04-03T01:38:43;60.05;;;5.70;;
1308;SDS011;647;48.840;9.314;2023-04-03T01:41:10;62.15;;;6.13;;
1308;SDS011;647;48.840;9.314;2023-04-03T01:43:37;59.90;;;5.70;;
1308;SDS011;647;48.840;9.314;2023-04-03T01:46:05;61.58;;;6.03;;
1308;SDS011;647;48.840;9.314;2023-04-03T01:48:32;60.85;;;5.57;;
1308;SDS011;647;48.840;9.314;2023-04-03T01:51:01;61.72;;;5.78;;
1308;SDS011;647;48.840;9.314;2023-04-03T01:53:28;60.03;;;5.55;;
1308;SDS011;647;48.840;9.314;2023-04-03T01:55:55;60.90;;;6.22;;
1308;SDS011;647;48.840;9.314;2023-04-03T01:58:22;60.83;;;6.53;;
1308;SDS011;647;48.840;9.314;2023-04-03T02:00:50;62.47;;;6.45;;
1308;SDS011;647;48.840;9.314;2023-04-03T02:03:17;61.53;;;5.80;;
1308;SDS011;647;48.840;9.314;2023-04-03T02:05:44;61.08;;;6.25;;
1308;SDS011;647;48.840;9.314;2023-04-03T02:08:13;60.33;;;6.03;;
1308;SDS011;647;48.840;9.314;2023-04-03T02:10:42;61.35;;;6.20;;
1308;SDS011;647;48.840;9.314;2023-04-03T02:13:10;61.72;;;5.82;;
1308;SDS011;647;48.840;9.314;2023-04-03T02:15:37;60.22;;;5.53;;
1308;SDS011;647;48.840;9.314;2023-04-03T02:18:04;60.50;;;5.93;;
1308;SDS011;647;48.840;9.314;2023-04-03T02:20:31;61.47;;;6.35;;
1308;SDS011;647;48.840;9.314;2023-04-03T02:22:59;60.00;;;6.00;;
1308;SDS011;647;48.840;9.314;2023-04-03T02:25:28;60.47;;;6.00;;
1308;SDS011;647;48.840;9.314;2023-04-03T02:27:55;61.35;;;5.70;;
1308;SDS011;647;48.840;9.314;2023-04-03T02:30:22;59.75;;;5.70;;
1308;SDS011;647;48.840;9.314;2023-04-03T02:32:49;60.05;;;6.35;;
1308;SDS011;647;48.840;9.314;2023-04-03T02:35:16;60.05;;;5.57;;
1308;SDS011;647;48.840;9.314;2023-04-03T02:37:43;61.28;;;6.15;;
1308;SDS011;647;48.840;9.314;2023-04-03T02:40:11;60.05;;;5.82;;
1308;SDS011;647;48.840;9.314;2023-04-03T02:42:39;60.30;;;5.82;;
1308;SDS011;647;48.840;9.314;2023-04-03T02:45:07;62.00;;;6.32;;
1308;SDS011;647;48.840;9.314;2023-04-03T02:47:34;61.95;;;6.22;;
1308;SDS011;647;48.840;9.314;2023-04-03T02:50:01;62.13;;;6.55;;
1308;SDS011;647;48.840;9.314;2023-04-03T02:52:28;61.60;;;5.80;;
1308;SDS011;647;48.840;9.314;2023-04-03T02:54:55;61.40;;;6.30;;
1308;SDS011;647;48.840;9.314;2023-04-03T02:57:22;61.45;;;6.28;;
1308;SDS011;647;48.840;9.314;2023-04-03T02:59:51;61.58;;;6.25;;
1308;SDS011;647;48.840;9.314;2023-04-03T03:02:18;64.13;;;6.70;;
1308;SDS011;647;48.840;9.314;2023-04-03T03:04:46;59.75;;;5.75;;
1308;SDS011;647;48.840;9.314;2023-04-03T03:07:13;62.50;;;5.85;;
1308;SDS011;647;48.840;9.314;2023-04-03T03:09:40;61.85;;;5.70;;
1308;SDS011;647;48.840;9.314;2023-04-03T03:12:07;60.40;;;5.72;;
1308;SDS011;647;48.840;9.314;2023-04-03T03:14:34;62.30;;;5.75;;
1308;SDS011;647;48.840;9.314;2023-04-03T03:17:03;62.30;;;6.03;;
1308;SDS011;647;48.840;9.314;2023-04-03T03:19:30;61.20;;;6.35;;
1308;SDS011;647;48.840;9.314;2023-04-03T03:21:57;60.90;;;6.60;;
1308;SDS011;647;48.840;9.314;2023-04-03T03:24:24;62.40;;;5.95;;
1308;SDS011;647;48.840;9.314;2023-04-03T03:26:51;60.47;;;5.60;;
1308;SDS011;647;48.840;9.314;2023-04-03T03:29:18;64.20;;;6.35;;
1308;SDS011;647;48.840;9.314;2023-04-03T03:31:45;61.45;;;6.15;;
1308;SDS011;647;48.840;9.314;2023-04-03T03:34:14;60.03;;;5.90;;
1308;SDS011;647;48.840;9.314;2023-04-03T03:36:41;62.45;;;5.22;;
1308;SDS011;647;48.840;9.314;2023-04-03T03:39:08;59.95;;;5.85;;
1308;SDS011;647;48.840;9.314;2023-04-03T03:41:36;60.30;;;5.55;;
1308;SDS011;647;48.840;9.314;2023-04-03T03:44:03;60.33;;;5.20;;
1308;SDS011;647;48.840;9.314;2023-04-03T03:46:30;60.63;;;6.07;;
1308;SDS011;647;48.840;9.314;2023-04-03T03:48:57;61.30;;;5.32;;
1308;SDS011;647;48.840;9.314;2023-04-03T03:51:26;64.68;;;5.53;;
1308;SDS011;647;48.840;9.314;2023-04-03T03:53:53;60.10;;;5.63;;
1308;SDS011;647;48.840;9.314;2023-04-03T03:56:20;61.45;;;5.78;;
1308;SDS011;647;48.840;9.314;2023-04-03T03:58:47;59.00;;;4.90;;
1308;SDS011;647;48.840;9.314;2023-04-03T04:01:15;60.03;;;5.13;;
1308;SDS011;647;48.840;9.314;2023-04-03T04:03:43;61.85;;;6.40;;
1308;SDS011;647;48.840;9.314;2023-04-03T04:06:10;59.35;;;5.35;;
1308;SDS011;647;48.840;9.314;2023-04-03T04:08:38;61.10;;;5.30;;
1308;SDS011;647;48.840;9.314;2023-04-03T04:11:06;60.92;;;4.80;;
1308;SDS011;647;48.840;9.314;2023-04-03T04:13:33;61.20;;;5.50;;
1308;SDS011;647;48.840;9.314;2023-04-03T04:16:00;59.65;;;5.60;;
1308;SDS011;647;48.840;9.314;2023-04-03T04:18:28;60.22;;;5.43;;
1308;SDS011;647;48.840;9.314;2023-04-03T04:20:55;60.72;;;6.07;;
1308;SDS011;647;48.840;9.314;2023-04-03T04:23:22;59.90;;;5.53;;
1308;SDS011;647;48.840;9.314;2023-04-03T04:25:50;60.72;;;5.03;;
1308;SDS011;647;48.840;9.314;2023-04-03T04:28:18;59.97;;;5.53;;
1308;SDS011;647;48.840;9.314;2023-04-03T04:30:45;62.90;;;5.72;;
1308;SDS011;647;48.840;9.314;2023-04-03T04:33:12;61.03;;;5.60;;
1308;SDS011;647;48.840;9.314;2023-04-03T04:35:41;60.92;;;5.47;;
1308;SDS011;647;48.840;9.314;2023-04-03T04:38:08;59.83;;;5.50;;
1308;SDS011;647;48.840;9.314;2023-04-03T04:40:35;60.75;;;5.55;;
1308;SDS011;647;48.840;9.314;2023-04-03T04:43:04;60.25;;;5.70;;
1308;SDS011;647;48.840;9.314;2023-04-03T04:45:31;59.53;;;5.65;;
1308;SDS011;647;48.840;9.314;2023-04-03T04:47:58;59.90;;;6.15;;
1308;SDS011;647;48.840;9.314;2023-04-03T04:50:25;62.85;;;5.80;;
1308;SDS011;647;48.840;9.314;2023-04-03T04:52:53;59.60;;;5.85;;
1308;SDS011;647;48.840;9.314;2023-04-03T04:55:20;60.95;;;5.90;;
1308;SDS011;647;48.840;9.314;2023-04-03T04:57:47;60.05;;;5.15;;
1308;SDS011;647;48.840;9.314;2023-04-03T05:00:16;61.65;;;6.05;;
1308;SDS011;647;48.840;9.314;2023-04-03T05:02:43;62.67;;;6.68;;
1308;SDS011;647;48.840;9.314;2023-04-03T05:05:10;61.95;;;5.63;;
1308;SDS011;647;48.840;9.314;2023-04-03T05:07:37;60.55;;;6.05;;
1308;SDS011;647;48.840;9.314;2023-04-03T05:10:06;60.67;;;5.25;;
1308;SDS011;647;48.840;9.314;2023-04-03T05:12:33;59.78;;;4.97;;
1308;SDS011;647;48.840;9.314;2023-04-03T05:15:00;60.92;;;5.65;;
1308;SDS011;647;48.840;9.314;2023-04-03T05:17:28;60.45;;;5.43;;
1308;SDS011;647;48.840;9.314;2023-04-03T05:19:56;62.80;;;5.45;;
1308;SDS011;647;48.840;9.314;2023-04-03T05:22:23;63.55;;;5.82;;
1308;SDS011;647;48.840;9.314;2023-04-03T05:24:50;61.25;;;5.70;;
1308;SDS011;647;48.840;9.314;2023-04-03T05:27:17;61.03;;;6.10;;
1308;SDS011;647;48.840;9.314;2023-04-03T05:29:44;59.30;;;5.57;;
1308;SDS011;647;48.840;9.314;2023-04-03T05:32:11;59.20;;;4.72;;
1308;SDS011;647;48.840;9.314;2023-04-03T05:34:40;60.63;;;5.45;;
1308;SDS011;647;48.840;9.314;2023-04-03T05:37:07;60.67;;;5.57;;
1308;SDS011;647;48.840;9.314;2023-04-03T05:39:34;61.50;;;6.18;;
1308;SDS011;647;48.840;9.314;2023-04-03T05:42:03;61.00;;;5.32;;
1308;SDS011;647;48.840;9.314;2023-04-03T05:44:30;60.30;;;5.63;;
1308;SDS011;647;48.840;9.314;2023-04-03T05:46:57;59.78;;;5.70;;
1308;SDS011;647;48.840;9.314;2023-04-03T05:49:24;60.67;;;5.35;;
1308;SDS011;647;48.840;9.314;2023-04-03T05:51:53;60.25;;;5.85;;
1308;SDS011;647;48.840;9.314;2023-04-03T05:54:21;60.28;;;4.95;;
1308;SDS011;647;48.840;9.314;2023-04-03T05:56:50;59.50;;;5.40;;
1308;SDS011;647;48.840;9.314;2023-04-03T05:59:17;60.00;;;5.72;;
1308;SDS011;647;48.840;9.314;2023-04-03T06:01:44;60.80;;;6.22;;
1308;SDS011;647;48.840;9.314;2023-04-03T06:04:11;62.13;;;5.43;;
1308;SDS011;647;48.840;9.314;2023-04-03T06:06:45;60.13;;;5.47;;
1308;SDS011;647;48.840;9.314;2023-04-03T06:09:14;59.45;;;5.40;;
1308;SDS011;647;48.840;9.314;2023-04-03T06:11:42;61.35;;;6.30;;
1308;SDS011;647;48.840;9.314;2023-04-03T06:14:10;60.38;;;5.30;;
1308;SDS011;647;48.840;9.314;2023-04-03T06:16:37;60.60;;;5.18;;
1308;SDS011;647;48.840;9.314;2023-04-03T06:19:04;61.63;;;5.00;;
1308;SDS011;647;48.840;9.314;2023-04-03T06:21:32;59.20;;;4.45;;
1308;SDS011;647;48.840;9.314;2023-04-03T06:23:59;59.33;;;4.88;;
1308;SDS011;647;48.840;9.314;2023-04-03T06:26:28;60.00;;;5.28;;
1308;SDS011;647;48.840;9.314;2023-04-03T06:28:55;59.58;;;5.28;;
1308;SDS011;647;48.840;9.314;2023-04-03T06:31:22;59.60;;;4.70;;
1308;SDS011;647;48.840;9.314;2023-04-03T06:33:49;60.38;;;5.15;;
1308;SDS011;647;48.840;9.314;2023-04-03T06:36:17;61.35;;;4.90;;
1308;SDS011;647;48.840;9.314;2023-04-03T06:38:46;59.58;;;4.85;;
1308;SDS011;647;48.840;9.314;2023-04-03T06:41:13;59.88;;;5.38;;
1308;SDS011;647;48.840;9.314;2023-04-03T06:43:42;60.40;;;4.88;;
1308;SDS011;647;48.840;9.314;2023-04-03T06:46:12;61.25;;;5.30;;
1308;SDS011;647;48.840;9.314;2023-04-03T06:48:40;61.55;;;5.30;;
1308;SDS011;647;48.840;9.314;2023-04-03T06:51:10;60.42;;;4.85;;
1308;SDS011;647;48.840;9.314;2023-04-03T06:53:38;59.85;;;4.60;;
1308;SDS011;647;48.840;9.314;2023-04-03T06:56:05;60.45;;;5.40;;
1308;SDS011;647;48.840;9.314;2023-04-03T06:58:32;61.75;;;5.20;;
1308;SDS011;647;48.840;9.314;2023-04-03T07:01:01;61.40;;;4.85;;
1308;SDS011;647;48.840;9.314;2023-04-03T07:03:28;60.10;;;5.33;;
1308;SDS011;647;48.840;9.314;2023-04-03T07:05:55;60.85;;;5.20;;
1308;SDS011;647;48.840;9.314;2023-04-03T07:08:22;61.87;;;5.80;;
1308;SDS011;647;48.840;9.314;2023-04-03T07:10:51;60.27;;;4.90;;
1308;SDS011;647;48.840;9.314;2023-04-03T07:13:18;61.87;;;5.90;;
1308;SDS011;647;48.840;9.314;2023-04-03T07:15:45;60.67;;;5.00;;
1308;SDS011;647;48.840;9.314;2023-04-03T07:18:13;62.27;;;4.73;;
1308;SDS011;647;48.840;9.314;2023-04-03T07:20:42;60.15;;;5.10;;
1308;SDS011;647;48.840;9.314;2023-04-03T07:23:09;59.30;;;4.50;;
1308;SDS011;647;48.840;9.314;2023-04-03T07:25:36;60.53;;;4.90;;
1308;SDS011;647;48.840;9.314;2023-04-03T07:28:03;60.00;;;4.78;;
1308;SDS011;647;48.840;9.314;2023-04-03T07:30:30;60.15;;;4.35;;
1308;SDS011;647;48.840;9.314;2023-04-03T07:32:57;60.47;;;4.70;;
1308;SDS011;647;48.840;9.314;2023-04-03T07:35:27;61.37;;;4.70;;
1308;SDS011;647;48.840;9.314;2023-04-03T07:37:54;60.53;;;4.60;;
1308;SDS011;647;48.840;9.314;2023-04-03T07:40:21;60.07;;;5.60;;
1308;SDS011;647;48.840;9.314;2023-04-03T07:42:48;59.67;;;4.73;;
1308;SDS011;647;48.840;9.314;2023-04-03T07:45:15;60.58;;;4.43;;
1308;SDS011;647;48.840;9.314;2023-04-03T07:47:42;61.10;;;5.40;;
1308;SDS011;647;48.840;9.314;2023-04-03T07:50:10;59.07;;;4.40;;
1308;SDS011;647;48.840;9.314;2023-04-03T07:52:38;62.40;;;4.90;;
1308;SDS011;647;48.840;9.314;2023-04-03T07:55:06;61.87;;;4.90;;
1308;SDS011;647;48.840;9.314;2023-04-03T07:57:33;58.67;;;4.43;;
1308;SDS011;647;48.840;9.314;2023-04-03T08:00:01;59.20;;;5.10;;
1308;SDS011;647;48.840;9.314;2023-04-03T08:02:28;60.70;;;4.47;;
1308;SDS011;647;48.840;9.314;2023-04-03T08:04:56;60.60;;;5.03;;
1308;SDS011;647;48.840;9.314;2023-04-03T08:07:23;59.80;;;5.10;;
1308;SDS011;647;48.840;9.314;2023-04-03T08:09:52;60.40;;;4.47;;
1308;SDS011;647;48.840;9.314;2023-04-03T08:12:19;61.57;;;4.90;;
1308;SDS011;647;48.840;9.314;2023-04-03T08:14:46;63.37;;;4.80;;
1308;SDS011;647;48.840;9.314;2023-04-03T08:17:13;60.53;;;4.80;;
1308;SDS011;647;48.840;9.314;2023-04-03T08:19:41;59.57;;;4.70;;
1308;SDS011;647;48.840;9.314;2023-04-03T08:22:08;61.17;;;5.20;;
1308;SDS011;647;48.840;9.314;2023-04-03T08:24:35;62.60;;;4.77;;
1308;SDS011;647;48.840;9.314;2023-04-03T08:27:03;59.67;;;4.60;;
1308;SDS011;647;48.840;9.314;2023-04-03T08:29:30;58.67;;;4.40;;
1308;SDS011;647;48.840;9.314;2023-04-03T08:31:57;59.47;;;4.10;;
1308;SDS011;647;48.840;9.314;2023-04-03T08:34:25;62.40;;;4.60;;
1308;SDS011;647;48.840;9.314;2023-04-03T08:36:52;60.30;;;4.87;;
1308;SDS011;647;48.840;9.314;2023-04-03T08:39:19;58.97;;;4.33;;
1308;SDS011;647;48.840;9.314;2023-04-03T08:41:46;63.10;;;4.63;;
1308;SDS011;647;48.840;9.314;2023-04-03T08:44:15;58.60;;;4.50;;
1308;SDS011;647;48.840;9.314;2023-04-03T08:46:55;62.23;;;5.00;;
1308;SDS011;647;48.840;9.314;2023-04-03T08:49:24;60.60;;;4.60;;
1308;SDS011;647;48.840;9.314;2023-04-03T08:51:53;59.80;;;4.80;;
1308;SDS011;647;48.840;9.314;2023-04-03T08:54:23;59.97;;;4.17;;
1308;SDS011;647;48.840;9.314;2023-04-03T08:56:52;59.57;;;4.73;;
1308;SDS011;647;48.840;9.314;2023-04-03T08:59:22;60.63;;;4.60;;
1308;SDS011;647;48.840;9.314;2023-04-03T09:01:51;58.60;;;4.70;;
1308;SDS011;647;48.840;9.314;2023-04-03T09:04:19;59.97;;;4.00;;
1308;SDS011;647;48.840;9.314;2023-04-03T09:06:48;61.30;;;3.80;;
1308;SDS011;647;48.840;9.314;2023-04-03T09:09:21;58.90;;;4.20;;
1308;SDS011;647;48.840;9.314;2023-04-03T09:11:56;58.30;;;4.20;;
1308;SDS011;647;48.840;9.314;2023-04-03T09:14:27;60.80;;;4.40;;
1308;SDS011;647;48.840;9.314;2023-04-03T09:16:58;62.17;;;4.20;;
1308;SDS011;647;48.840;9.314;2023-04-03T09:19:28;60.40;;;4.30;;
1308;SDS011;647;48.840;9.314;2023-04-03T09:21:58;58.40;;;3.50;;
1308;SDS011;647;48.840;9.314;2023-04-03T09:24:27;58.30;;;4.03;;
1308;SDS011;647;48.840;9.314;2023-04-03T09:26:56;58.20;;;4.00;;
1308;SDS011;647;48.840;9.314;2023-04-03T09:29:26;58.90;;;3.50;;
1308;SDS011;647;48.840;9.314;2023-04-03T09:31:55;59.80;;;4.10;;
1308;SDS011;647;48.840;9.314;2023-04-03T09:34:24;60.17;;;4.20;;
1308;SDS011;647;48.840;9.314;2023-04-03T09:36:52;60.50;;;4.70;;
1308;SDS011;647;48.840;9.314;2023-04-03T09:39:21;59.30;;;3.83;;
1308;SDS011;647;48.840;9.314;2023-04-03T09:41:56;59.30;;;4.20;;
1308;SDS011;647;48.840;9.314;2023-04-03T09:44:24;58.90;;;4.40;;
1308;SDS011;647;48.840;9.314;2023-04-03T09:46:52;60.53;;;4.80;;
1308;SDS011;647;48.840;9.314;2023-04-03T09:49:20;61.53;;;4.57;;
1308;SDS011;647;48.840;9.314;2023-04-03T09:51:48;60.47;;;4.90;;
1308;SDS011;647;48.840;9.314;2023-04-03T09:57:10;60.77;;;4.17;;
1308;SDS011;647;48.840;9.314;2023-04-03T09:59:42;57.97;;;4.30;;
1308;SDS011;647;48.840;9.314;2023-04-03T10:02:22;62.60;;;4.40;;
1308;SDS011;647;48.840;9.314;2023-04-03T10:04:50;58.87;;;4.07;;
1308;SDS011;647;48.840;9.314;2023-04-03T10:07:28;61.40;;;4.93;;
1308;SDS011;647;48.840;9.314;2023-04-03T10:09:55;59.37;;;4.47;;
1308;SDS011;647;48.840;9.314;2023-04-03T10:12:23;59.57;;;4.60;;
1308;SDS011;647;48.840;9.314;2023-04-03T10:14:54;58.77;;;4.27;;
1308;SDS011;647;48.840;9.314;2023-04-03T10:17:24;59.20;;;4.53;;
1308;SDS011;647;48.840;9.314;2023-04-03T10:19:54;59.10;;;4.27;;
1308;SDS011;647;48.840;9.314;2023-04-03T10:22:25;60.57;;;4.83;;
1308;SDS011;647;48.840;9.314;2023-04-03T10:24:59;59.67;;;4.13;;
1308;SDS011;647;48.840;9.314;2023-04-03T10:27:31;58.80;;;3.93;;
1308;SDS011;647;48.840;9.314;2023-04-03T10:30:05;62.37;;;3.93;;
1308;SDS011;647;48.840;9.314;2023-04-03T10:32:44;58.87;;;4.40;;
1308;SDS011;647;48.840;9.314;2023-04-03T10:35:16;61.70;;;4.27;;
1308;SDS011;647;48.840;9.314;2023-04-03T10:37:50;57.77;;;4.30;;
1308;SDS011;647;48.840;9.314;2023-04-03T10:40:22;58.30;;;4.40;;
1308;SDS011;647;48.840;9.314;2023-04-03T10:42:52;59.27;;;3.43;;
1308;SDS011;647;48.840;9.314;2023-04-03T10:45:24;61.50;;;4.13;;
1308;SDS011;647;48.840;9.314;2023-04-03T10:47:56;59.33;;;4.00;;
1308;SDS011;647;48.840;9.314;2023-04-03T10:50:31;59.30;;;3.90;;
1308;SDS011;647;48.840;9.314;2023-04-03T10:53:04;59.77;;;3.50;;
1308;SDS011;647;48.840;9.314;2023-04-03T10:55:34;58.60;;;3.70;;
1308;SDS011;647;48.840;9.314;2023-04-03T10:58:04;59.67;;;3.90;;
1308;SDS011;647;48.840;9.314;2023-04-03T11:00:35;58.70;;;3.73;;
1308;SDS011;647;48.840;9.314;2023-04-03T11:03:05;59.90;;;3.63;;
1308;SDS011;647;48.840;9.314;2023-04-03T11:05:34;58.43;;;3.50;;
1308;SDS011;647;48.840;9.314;2023-04-03T11:08:04;57.53;;;3.67;;
1308;SDS011;647;48.840;9.314;2023-04-03T11:10:36;58.00;;;3.50;;
1308;SDS011;647;48.840;9.314;2023-04-03T11:13:07;59.17;;;3.90;;
1308;SDS011;647;48.840;9.314;2023-04-03T11:15:35;58.47;;;3.93;;
1308;SDS011;647;48.840;9.314;2023-04-03T11:18:04;62.80;;;4.33;;
1308;SDS011;647;48.840;9.314;2023-04-03T11:20:33;61.93;;;5.00;;
1308;SDS011;647;48.840;9.314;2023-04-03T11:23:03;59.90;;;4.10;;
1308;SDS011;647;48.840;9.314;2023-04-03T11:25:31;59.37;;;4.30;;
1308;SDS011;647;48.840;9.314;2023-04-03T11:28:00;60.80;;;4.23;;
1308;SDS011;647;48.840;9.314;2023-04-03T11:30:30;58.90;;;4.10;;
1308;SDS011;647;48.840;9.314;2023-04-03T11:35:45;60.17;;;4.17;;
1308;SDS011;647;48.840;9.314;2023-04-03T11:38:14;58.90;;;3.63;;
1308;SDS011;647;48.840;9.314;2023-04-03T11:40:45;58.70;;;3.50;;
1308;SDS011;647;48.840;9.314;2023-04-03T11:43:18;60.07;;;4.20;;
1308;SDS011;647;48.840;9.314;2023-04-03T11:45:50;61.60;;;4.27;;
1308;SDS011;647;48.840;9.314;2023-04-03T11:53:48;58.10;;;4.00;;
1308;SDS011;647;48.840;9.314;2023-04-03T11:56:29;58.47;;;4.00;;
1308;SDS011;647;48.840;9.314;2023-04-03T11:59:15;58.37;;;3.70;;
1308;SDS011;647;48.840;9.314;2023-04-03T12:01:44;59.07;;;3.90;;
1308;SDS011;647;48.840;9.314;2023-04-03T12:04:12;59.43;;;3.77;;
1308;SDS011;647;48.840;9.314;2023-04-03T12:09:26;60.10;;;4.27;;
1308;SDS011;647;48.840;9.314;2023-04-03T12:11:53;59.50;;;3.93;;
1308;SDS011;647;48.840;9.314;2023-04-03T12:14:22;57.90;;;3.30;;
1308;SDS011;647;48.840;9.314;2023-04-03T12:16:50;59.37;;;3.53;;
1308;SDS011;647;48.840;9.314;2023-04-03T12:19:27;58.70;;;3.13;;
1308;SDS011;647;48.840;9.314;2023-04-03T12:22:06;59.80;;;3.70;;
1308;SDS011;647;48.840;9.314;2023-04-03T12:24:35;61.00;;;4.27;;
1308;SDS011;647;48.840;9.314;2023-04-03T12:29:51;57.80;;;3.50;;
1308;SDS011;647;48.840;9.314;2023-04-03T12:32:23;58.70;;;3.83;;
1308;SDS011;647;48.840;9.314;2023-04-03T12:37:51;60.87;;;4.20;;
1308;SDS011;647;48.840;9.314;2023-04-03T12:40:26;58.70;;;3.93;;
1308;SDS011;647;48.840;9.314;2023-04-03T12:43:02;59.70;;;3.80;;
1308;SDS011;647;48.840;9.314;2023-04-03T12:45:38;60.10;;;3.87;;
1308;SDS011;647;48.840;9.314;2023-04-03T12:48:08;58.90;;;3.77;;
1308;SDS011;647;48.840;9.314;2023-04-03T12:50:39;60.90;;;4.07;;
1308;SDS011;647;48.840;9.314;2023-04-03T12:53:11;60.17;;;3.33;;
1308;SDS011;647;48.840;9.314;2023-04-03T12:55:40;60.77;;;3.77;;
1308;SDS011;647;48.840;9.314;2023-04-03T12:58:14;58.63;;;3.67;;
1308;SDS011;647;48.840;9.314;2023-04-03T13:00:42;58.87;;;3.33;;
1308;SDS011;647;48.840;9.314;2023-04-03T13:03:19;58.30;;;3.63;;
1308;SDS011;647;48.840;9.314;2023-04-03T13:05:48;58.60;;;3.47;;
1308;SDS011;647;48.840;9.314;2023-04-03T13:08:15;66.37;;;3.60;;
1308;SDS011;647;48.840;9.314;2023-04-03T13:10:48;58.57;;;3.70;;
1308;SDS011;647;48.840;9.314;2023-04-03T13:13:16;59.37;;;3.57;;
1308;SDS011;647;48.840;9.314;2023-04-03T13:15:44;59.63;;;3.80;;
1308;SDS011;647;48.840;9.314;2023-04-03T13:18:23;59.17;;;3.87;;
1308;SDS011;647;48.840;9.314;2023-04-03T13:20:51;60.70;;;3.60;;
1308;SDS011;647;48.840;9.314;2023-04-03T13:23:18;58.63;;;3.80;;
1308;SDS011;647;48.840;9.314;2023-04-03T13:25:49;59.00;;;3.47;;
1308;SDS011;647;48.840;9.314;2023-04-03T13:28:18;58.67;;;3.40;;
1308;SDS011;647;48.840;9.314;2023-04-03T13:30:54;59.17;;;3.87;;
1308;SDS011;647;48.840;9.314;2023-04-03T13:33:22;58.20;;;3.60;;
1308;SDS011;647;48.840;9.314;2023-04-03T13:35:54;58.20;;;3.47;;
1308;SDS011;647;48.840;9.314;2023-04-03T13:38:23;61.37;;;4.13;;
1308;SDS011;647;48.840;9.314;2023-04-03T13:40:53;59.40;;;4.07;;
1308;SDS011;647;48.840;9.314;2023-04-03T13:43:21;60.67;;;4.43;;
1308;SDS011;647;48.840;9.314;2023-04-03T13:45:54;60.60;;;3.97;;
1308;SDS011;647;48.840;9.314;2023-04-03T13:48:22;60.27;;;3.93;;
1308;SDS011;647;48.840;9.314;2023-04-03T13:50:50;62.87;;;4.13;;
1308;SDS011;647;48.840;9.314;2023-04-03T13:53:18;59.63;;;3.60;;
1308;SDS011;647;48.840;9.314;2023-04-03T13:55:57;58.87;;;3.90;;
1308;SDS011;647;48.840;9.314;2023-04-03T13:58:25;59.00;;;4.00;;
1308;SDS011;647;48.840;9.314;2023-04-03T14:00:53;58.70;;;3.67;;
1308;SDS011;647;48.840;9.314;2023-04-03T14:03:20;59.13;;;4.20;;
1308;SDS011;647;48.840;9.314;2023-04-03T14:05:48;59.47;;;3.93;;
1308;SDS011;647;48.840;9.314;2023-04-03T14:08:15;57.97;;;3.33;;
1308;SDS011;647;48.840;9.314;2023-04-03T14:10:42;59.87;;;3.77;;
1308;SDS011;647;48.840;9.314;2023-04-03T14:13:12;60.93;;;4.00;;
1308;SDS011;647;48.840;9.314;2023-04-03T14:15:40;57.90;;;3.60;;
1308;SDS011;647;48.840;9.314;2023-04-03T14:18:09;60.60;;;4.13;;
1308;SDS011;647;48.840;9.314;2023-04-03T14:20:36;58.77;;;3.93;;
1308;SDS011;647;48.840;9.314;2023-04-03T14:23:04;58.53;;;3.73;;
1308;SDS011;647;48.840;9.314;2023-04-03T14:25:31;60.30;;;4.50;;
1308;SDS011;647;48.840;9.314;2023-04-03T14:27:59;59.87;;;3.27;;
1308;SDS011;647;48.840;9.314;2023-04-03T14:30:29;60.37;;;3.97;;
1308;SDS011;647;48.840;9.314;2023-04-03T14:32:58;58.30;;;3.70;;
1308;SDS011;647;48.840;9.314;2023-04-03T14:35:25;61.37;;;4.40;;
1308;SDS011;647;48.840;9.314;2023-04-03T14:37:55;59.27;;;3.70;;
1308;SDS011;647;48.840;9.314;2023-04-03T14:40:23;59.40;;;3.47;;
1308;SDS011;647;48.840;9.314;2023-04-03T14:42:50;59.10;;;3.50;;
1308;SDS011;647;48.840;9.314;2023-04-03T14:45:20;57.37;;;3.20;;
1308;SDS011;647;48.840;9.314;2023-04-03T14:47:49;60.40;;;3.70;;
1308;SDS011;647;48.840;9.314;2023-04-03T14:50:18;59.23;;;4.00;;
1308;SDS011;647;48.840;9.314;2023-04-03T14:52:46;59.90;;;3.97;;
1308;SDS011;647;48.840;9.314;2023-04-03T14:55:14;60.80;;;4.00;;
1308;SDS011;647;48.840;9.314;2023-04-03T14:57:41;59.83;;;3.70;;
1308;SDS011;647;48.840;9.314;2023-04-03T15:00:11;58.50;;;3.50;;
1308;SDS011;647;48.840;9.314;2023-04-03T15:02:39;60.70;;;3.93;;
1308;SDS011;647;48.840;9.314;2023-04-03T15:05:08;59.97;;;4.17;;
1308;SDS011;647;48.840;9.314;2023-04-03T15:07:36;59.60;;;3.93;;
1308;SDS011;647;48.840;9.314;2023-04-03T15:10:13;59.80;;;4.00;;
1308;SDS011;647;48.840;9.314;2023-04-03T15:12:41;58.00;;;3.27;;
1308;SDS011;647;48.840;9.314;2023-04-03T15:15:09;61.43;;;3.73;;
1308;SDS011;647;48.840;9.314;2023-04-03T15:17:36;59.00;;;3.80;;
1308;SDS011;647;48.840;9.314;2023-04-03T15:20:05;58.27;;;3.60;;
1308;SDS011;647;48.840;9.314;2023-04-03T15:22:39;58.83;;;3.40;;
1308;SDS011;647;48.840;9.314;2023-04-03T15:25:06;60.37;;;3.90;;
1308;SDS011;647;48.840;9.314;2023-04-03T15:27:33;58.57;;;3.73;;
1308;SDS011;647;48.840;9.314;2023-04-03T15:30:00;59.47;;;3.73;;
1308;SDS011;647;48.840;9.314;2023-04-03T15:32:28;59.13;;;4.10;;
1308;SDS011;647;48.840;9.314;2023-04-03T15:34:55;59.27;;;3.60;;
1308;SDS011;647;48.840;9.314;2023-04-03T15:37:22;58.03;;;3.40;;
1308;SDS011;647;48.840;9.314;2023-04-03T15:39:50;58.87;;;3.70;;
1308;SDS011;647;48.840;9.314;2023-04-03T15:42:17;58.50;;;3.80;;
1308;SDS011;647;48.840;9.314;2023-04-03T15:44:45;58.17;;;3.07;;
1308;SDS011;647;48.840;9.314;2023-04-03T15:47:12;58.60;;;3.30;;